Time;durP1;ratioP1;P1;durP2;ratioP2;P2;SDS_P1;SDS_P2;PMS_P1;PMS_P2;Temp;Humidity;BMP_temperature;BMP_pressure;BME280_temperature;BME280_humidity;BME280_pressure;Samples;Min_cycle;Max_cycle;Signal;HPM_P1;HPM_P2
2023/04/11 00:01:21;;;;;;;7.63;1.00;;;8.50;99.90;;;;;;5007933;28;20033;-78
2023/04/11 00:03:48;;;;;;;6.75;1.30;;;8.50;99.90;;;;;;5011348;28;20341;-78
2023/04/11 00:06:14;;;;;;;12.07;1.80;;;8.40;99.90;;;;;;5039916;28;20036;-78
2023/04/11 00:08:43;;;;;;;11.90;2.08;;;8.40;99.90;;;;;;5021806;28;20108;-78
2023/04/11 00:11:09;;;;;;;16.85;2.85;;;8.50;99.90;;;;;;5023861;28;20025;-78
2023/04/11 00:13:36;;;;;;;12.68;2.08;;;8.50;99.90;;;;;;5045566;28;20032;-78
2023/04/11 00:16:03;;;;;;;15.25;3.03;;;8.60;99.90;;;;;;5027442;28;20084;-78
2023/04/11 00:18:29;;;;;;;20.63;2.53;;;8.60;99.90;;;;;;5041587;28;20031;-78
2023/04/11 00:20:55;;;;;;;17.02;2.63;;;8.60;99.90;;;;;;4970198;28;1079507;-78
2023/04/11 00:23:22;;;;;;;22.02;4.22;;;8.70;99.90;;;;;;5025753;28;20037;-78
2023/04/11 00:25:48;;;;;;;22.75;4.35;;;8.70;99.90;;;;;;5006756;28;20392;-78
2023/04/11 00:28:14;;;;;;;23.60;4.88;;;8.80;99.90;;;;;;4992304;28;20044;-78
2023/04/11 00:30:41;;;;;;;21.42;3.42;;;8.90;99.90;;;;;;5009047;28;20423;-78
2023/04/11 00:33:07;;;;;;;28.35;5.05;;;8.90;99.90;;;;;;5010743;28;20024;-78
2023/04/11 00:35:34;;;;;;;27.48;5.03;;;9.00;99.90;;;;;;5010756;28;20052;-79
2023/04/11 00:38:01;;;;;;;32.60;5.72;;;9.10;99.90;;;;;;5003625;28;20037;-78
2023/04/11 00:40:27;;;;;;;36.30;6.65;;;9.20;99.90;;;;;;5044701;28;20407;-78
2023/04/11 00:42:55;;;;;;;28.50;5.13;;;9.20;99.90;;;;;;5012530;28;20026;-79
2023/04/11 00:45:22;;;;;;;25.13;4.75;;;9.20;99.90;;;;;;5043437;28;20685;-78
2023/04/11 00:47:49;;;;;;;29.48;5.40;;;9.20;99.90;;;;;;5006035;28;20601;-80
2023/04/11 00:50:16;;;;;;;26.10;5.00;;;9.30;99.90;;;;;;5005368;28;20040;-78
2023/04/11 00:52:48;;;;;;;26.50;5.38;;;9.30;99.90;;;;;;5007214;28;20063;-79
2023/04/11 00:55:15;;;;;;;32.15;6.40;;;9.30;99.90;;;;;;5026322;28;20048;-78
2023/04/11 00:57:43;;;;;;;34.00;6.78;;;9.20;99.90;;;;;;5023014;28;20411;-78
2023/04/11 01:00:10;;;;;;;31.77;5.90;;;9.20;99.90;;;;;;5008525;28;20384;-79
2023/04/11 01:02:43;;;;;;;26.08;5.43;;;9.20;99.90;;;;;;5025967;28;20051;-80
2023/04/11 01:05:12;;;;;;;35.30;6.60;;;9.30;99.90;;;;;;5027740;28;20535;-80
2023/04/11 01:07:42;;;;;;;31.08;5.95;;;9.20;99.90;;;;;;5027951;28;20036;-80
2023/04/11 01:10:09;;;;;;;26.70;4.93;;;9.20;99.90;;;;;;5041842;28;20041;-79
2023/04/11 01:12:37;;;;;;;24.10;4.70;;;9.10;99.90;;;;;;5012144;28;20463;-81
2023/04/11 01:15:05;;;;;;;30.40;5.38;;;9.10;99.90;;;;;;5046311;28;20035;-80
2023/04/11 01:17:31;;;;;;;28.55;4.88;;;9.00;99.90;;;;;;5022736;28;20035;-79
2023/04/11 01:19:58;;;;;;;35.38;5.60;;;8.90;99.90;;;;;;5005824;28;20085;-80
2023/04/11 01:22:26;;;;;;;29.13;3.85;;;8.90;99.90;;;;;;5025208;28;20033;-79
2023/04/11 01:24:52;;;;;;;22.67;3.58;;;8.90;99.90;;;;;;5010327;28;20506;-78
2023/04/11 01:27:19;;;;;;;29.77;5.10;;;8.90;99.90;;;;;;5026370;28;20035;-78
2023/04/11 01:29:45;;;;;;;32.80;6.25;;;8.90;99.90;;;;;;5006180;28;20040;-79
2023/04/11 01:32:11;;;;;;;27.25;5.18;;;9.00;99.90;;;;;;5000292;28;20328;-80
2023/04/11 01:34:40;;;;;;;27.20;4.03;;;9.00;99.90;;;;;;5029943;28;20340;-79
2023/04/11 01:37:07;;;;;;;31.88;4.22;;;9.00;99.90;;;;;;5013269;28;20040;-79
2023/04/11 01:39:34;;;;;;;33.83;5.00;;;8.90;99.90;;;;;;5005750;28;20037;-80
2023/04/11 01:42:02;;;;;;;40.83;4.95;;;8.90;99.90;;;;;;5026530;28;20252;-79
2023/04/11 01:44:31;;;;;;;27.52;4.38;;;8.90;99.90;;;;;;5029786;28;20455;-79
2023/04/11 01:46:57;;;;;;;28.58;4.70;;;8.90;99.90;;;;;;5018882;28;20071;-79
2023/04/11 01:49:25;;;;;;;36.80;5.88;;;8.90;99.90;;;;;;5009030;28;20348;-79
2023/04/11 01:51:51;;;;;;;30.10;5.00;;;8.80;99.90;;;;;;5029035;28;20041;-79
2023/04/11 01:54:19;;;;;;;29.00;4.25;;;8.80;99.90;;;;;;5026102;28;20043;-79
2023/04/11 01:56:46;;;;;;;30.08;4.65;;;8.70;99.90;;;;;;5025374;28;20435;-79
2023/04/11 01:59:13;;;;;;;28.98;4.40;;;8.70;99.90;;;;;;5006371;28;20068;-79
2023/04/11 02:01:41;;;;;;;28.20;3.97;;;8.70;99.90;;;;;;5024323;28;20040;-79
2023/04/11 02:04:08;;;;;;;29.83;3.47;;;8.60;99.90;;;;;;5039474;28;20049;-79
2023/04/11 02:06:34;;;;;;;43.72;6.45;;;8.60;99.90;;;;;;5046800;28;20028;-80
2023/04/11 02:09:00;;;;;;;25.40;4.13;;;8.50;99.90;;;;;;4989395;28;20511;-79
2023/04/11 02:11:27;;;;;;;28.55;4.18;;;8.50;99.90;;;;;;5027626;28;20017;-79
2023/04/11 02:13:53;;;;;;;26.67;3.20;;;8.40;99.90;;;;;;5042053;28;20032;-79
2023/04/11 02:16:24;;;;;;;28.55;4.28;;;8.40;99.90;;;;;;5007503;28;20055;-79
2023/04/11 02:18:52;;;;;;;22.02;2.95;;;8.40;99.90;;;;;;4991880;28;20047;-79
2023/04/11 02:21:18;;;;;;;26.10;3.85;;;8.40;99.90;;;;;;5025316;28;20052;-79
2023/04/11 02:23:44;;;;;;;30.95;4.75;;;8.30;99.90;;;;;;4994107;28;20044;-79
2023/04/11 02:26:12;;;;;;;34.22;4.05;;;8.30;99.90;;;;;;5010641;28;20036;-79
2023/04/11 02:28:38;;;;;;;34.80;4.00;;;8.30;99.90;;;;;;5041086;28;20388;-79
2023/04/11 02:31:04;;;;;;;31.85;4.15;;;8.30;99.90;;;;;;5009642;28;20055;-78
2023/04/11 02:33:31;;;;;;;32.33;4.18;;;8.30;99.90;;;;;;5010425;28;20032;-79
2023/04/11 02:35:57;;;;;;;37.22;4.30;;;8.40;99.90;;;;;;5012334;28;20036;-79
2023/04/11 02:38:24;;;;;;;20.73;2.65;;;8.50;99.90;;;;;;5040145;28;20028;-79
2023/04/11 02:40:50;;;;;;;26.50;3.60;;;8.40;99.90;;;;;;5045684;28;20063;-78
2023/04/11 02:43:17;;;;;;;25.40;2.83;;;8.50;99.90;;;;;;5008369;28;20404;-79
2023/04/11 02:45:43;;;;;;;26.13;3.70;;;8.50;99.90;;;;;;5009839;28;20447;-78
2023/04/11 02:48:11;;;;;;;25.90;2.72;;;8.60;99.90;;;;;;5022299;28;20524;-80
2023/04/11 02:50:42;;;;;;;28.50;2.88;;;8.60;99.90;;;;;;5011082;28;20930;-79
2023/04/11 02:53:09;;;;;;;21.85;3.20;;;8.60;99.90;;;;;;5013958;28;20045;-79
2023/04/11 02:55:40;;;;;;;18.17;2.53;;;8.70;99.90;;;;;;5042835;28;20409;-79
2023/04/11 02:58:06;;;;;;;24.38;1.92;;;8.60;99.90;;;;;;5007676;28;20403;-79
2023/04/11 03:00:33;;;;;;;15.63;1.23;;;8.60;99.90;;;;;;5014774;28;20529;-78
2023/04/11 03:03:05;;;;;;;14.85;1.52;;;8.60;99.90;;;;;;5030797;28;20541;-77
2023/04/11 03:05:36;;;;;;;13.43;1.35;;;8.50;99.90;;;;;;5030228;28;20048;-77
2023/04/11 03:08:03;;;;;;;9.82;1.10;;;8.40;99.90;;;;;;5009610;28;20037;-78
2023/04/11 03:10:31;;;;;;;14.52;1.90;;;8.40;99.90;;;;;;5012805;28;20044;-77
2023/04/11 03:12:59;;;;;;;19.23;1.83;;;8.30;99.90;;;;;;5026345;28;20059;-77
2023/04/11 03:15:26;;;;;;;15.20;1.52;;;8.30;99.90;;;;;;5014383;28;20024;-78
2023/04/11 03:17:54;;;;;;;13.68;1.55;;;8.30;99.90;;;;;;5025886;28;20059;-77
2023/04/11 03:20:22;;;;;;;14.20;1.35;;;8.40;99.90;;;;;;5012428;28;20224;-78
2023/04/11 03:22:52;;;;;;;21.77;2.85;;;8.40;99.90;;;;;;5010150;28;20069;-78
2023/04/11 03:25:20;;;;;;;13.10;1.15;;;8.40;99.90;;;;;;4998048;28;20044;-78
2023/04/11 03:27:48;;;;;;;17.80;1.75;;;8.40;99.90;;;;;;5024672;28;20044;-79
2023/04/11 03:30:15;;;;;;;12.60;1.27;;;8.40;99.90;;;;;;4994837;28;20028;-79
2023/04/11 03:32:44;;;;;;;11.50;1.20;;;8.50;99.90;;;;;;5030029;28;20037;-78
2023/04/11 03:35:11;;;;;;;13.73;1.42;;;8.50;99.90;;;;;;5048709;28;20403;-77
2023/04/11 03:37:42;;;;;;;20.70;1.50;;;8.50;99.90;;;;;;5027683;28;20778;-78
2023/04/11 03:40:09;;;;;;;17.20;2.03;;;8.50;99.90;;;;;;5026272;28;20039;-78
2023/04/11 03:42:38;;;;;;;20.60;2.45;;;8.50;99.90;;;;;;5011149;28;20507;-78
2023/04/11 03:45:08;;;;;;;17.85;2.03;;;8.40;99.90;;;;;;5025947;28;20633;-77
2023/04/11 03:47:34;;;;;;;17.23;2.28;;;8.30;99.90;;;;;;5008965;28;20475;-78
2023/04/11 03:50:02;;;;;;;21.38;1.98;;;8.30;99.90;;;;;;5033046;28;20373;-78
2023/04/11 03:52:34;;;;;;;17.50;2.00;;;8.20;99.90;;;;;;5018557;28;20443;-78
2023/04/11 03:55:01;;;;;;;19.92;1.98;;;8.20;99.90;;;;;;5031646;28;20777;-78
2023/04/11 03:57:28;;;;;;;17.60;2.00;;;8.10;99.90;;;;;;5014668;28;20036;-78
2023/04/11 03:59:55;;;;;;;23.13;2.70;;;8.00;99.90;;;;;;5012745;28;20037;-78
2023/04/11 04:02:21;;;;;;;18.60;1.83;;;8.00;99.90;;;;;;5047324;28;23221;-78
2023/04/11 04:04:57;;;;;;;19.70;1.67;;;8.00;99.90;;;;;;5029785;28;20039;-79
2023/04/11 04:07:32;;;;;;;15.90;1.63;;;7.90;99.90;;;;;;5027853;28;20340;-80
2023/04/11 04:10:08;;;;;;;18.23;1.33;;;7.90;99.90;;;;;;4996611;28;20045;-79
2023/04/11 04:12:35;;;;;;;13.77;1.27;;;7.90;99.90;;;;;;4990315;28;20052;-79
2023/04/11 04:15:13;;;;;;;11.60;1.20;;;7.90;99.90;;;;;;5002945;28;20044;-79
2023/04/11 04:17:41;;;;;;;11.25;1.20;;;8.00;99.90;;;;;;5025285;28;20399;-79
2023/04/11 04:20:12;;;;;;;8.90;0.90;;;8.00;99.90;;;;;;4994016;28;20332;-79
2023/04/11 04:22:41;;;;;;;18.42;1.77;;;8.10;99.90;;;;;;5024251;28;20040;-80
2023/04/11 04:25:11;;;;;;;15.80;1.90;;;8.10;99.90;;;;;;5028723;28;20041;-79
2023/04/11 04:27:42;;;;;;;11.25;1.13;;;8.10;99.90;;;;;;5007158;28;20036;-80
2023/04/11 04:30:14;;;;;;;13.68;1.42;;;8.10;99.90;;;;;;4994102;28;20349;-80
2023/04/11 04:32:59;;;;;;;10.55;1.13;;;8.20;99.90;;;;;;5024699;28;20032;-79
2023/04/11 04:35:26;;;;;;;16.75;1.52;;;8.20;99.90;;;;;;5027144;28;20045;-79
2023/04/11 04:37:52;;;;;;;9.80;1.30;;;8.20;99.90;;;;;;5026240;28;20036;-79
2023/04/11 04:40:40;;;;;;;10.23;1.48;;;8.20;99.90;;;;;;5026709;28;20020;-79
2023/04/11 04:43:17;;;;;;;12.07;1.25;;;8.30;99.90;;;;;;5009993;28;20044;-79
2023/04/11 04:45:57;;;;;;;10.27;0.93;;;8.30;99.90;;;;;;5006876;28;20027;-80
2023/04/11 04:48:29;;;;;;;11.55;1.02;;;8.30;99.90;;;;;;4992109;28;20037;-79
2023/04/11 04:50:55;;;;;;;8.30;0.98;;;8.30;99.90;;;;;;5026950;28;20036;-79
2023/04/11 04:53:22;;;;;;;12.45;1.42;;;8.30;99.90;;;;;;5008467;28;20037;-79
2023/04/11 04:55:53;;;;;;;13.00;1.35;;;8.30;99.90;;;;;;5026958;28;20483;-79
2023/04/11 04:58:20;;;;;;;18.67;1.73;;;8.30;99.90;;;;;;5023992;28;20028;-83
2023/04/11 05:00:54;;;;;;;8.57;1.40;;;8.30;99.90;;;;;;5026200;28;20035;-81
2023/04/11 05:03:23;;;;;;;9.43;1.10;;;8.30;99.90;;;;;;5007490;28;20044;-81
2023/04/11 05:05:51;;;;;;;11.27;0.90;;;8.30;99.90;;;;;;5028848;28;22838;-79
2023/04/11 05:08:19;;;;;;;13.82;1.10;;;8.30;99.90;;;;;;5004171;28;20041;-80
2023/04/11 05:10:46;;;;;;;16.60;1.50;;;8.30;99.90;;;;;;5027831;28;20039;-81
2023/04/11 05:13:13;;;;;;;14.65;1.42;;;8.30;99.90;;;;;;5026459;28;20032;-81
2023/04/11 05:15:46;;;;;;;7.15;1.00;;;8.30;99.90;;;;;;5027623;28;20045;-82
2023/04/11 05:18:14;;;;;;;10.85;1.20;;;8.30;99.90;;;;;;5006431;28;20040;-78
2023/04/11 05:20:40;;;;;;;9.57;1.17;;;8.30;99.90;;;;;;5006349;28;20067;-77
2023/04/11 05:23:09;;;;;;;10.50;1.05;;;8.30;99.90;;;;;;5010740;28;20396;-78
2023/04/11 05:25:35;;;;;;;14.07;0.82;;;8.30;99.90;;;;;;4994593;28;20055;-77
2023/04/11 05:28:04;;;;;;;9.38;1.17;;;8.30;99.90;;;;;;5039885;28;20476;-77
2023/04/11 05:30:31;;;;;;;8.07;1.00;;;8.30;99.90;;;;;;5027132;28;20051;-77
2023/04/11 05:32:58;;;;;;;4.20;0.50;;;8.20;99.90;;;;;;5007890;28;20040;-78
2023/04/11 05:35:24;;;;;;;11.10;0.82;;;8.20;99.90;;;;;;5025889;28;20059;-77
2023/04/11 05:37:54;;;;;;;9.82;0.70;;;8.20;99.90;;;;;;5022643;28;21173;-78
2023/04/11 05:40:20;;;;;;;8.40;0.82;;;8.10;99.90;;;;;;5024514;28;20399;-78
2023/04/11 05:42:48;;;;;;;11.45;0.80;;;8.00;99.90;;;;;;4995444;28;20044;-78
2023/04/11 05:45:14;;;;;;;5.40;0.82;;;8.00;99.90;;;;;;5027500;28;20035;-78
2023/04/11 05:47:42;;;;;;;6.22;0.70;;;7.90;99.90;;;;;;5024934;28;20024;-78
2023/04/11 05:50:09;;;;;;;6.15;0.50;;;8.00;99.90;;;;;;5023897;28;20044;-78
2023/04/11 05:52:36;;;;;;;7.97;0.75;;;8.00;99.90;;;;;;5045563;28;20029;-78
2023/04/11 05:55:03;;;;;;;9.20;0.60;;;8.00;99.90;;;;;;5007761;28;20049;-78
2023/04/11 05:57:29;;;;;;;7.30;0.60;;;8.10;99.90;;;;;;5027366;28;20372;-78
2023/04/11 05:59:56;;;;;;;8.60;0.90;;;8.10;99.90;;;;;;4987313;28;20033;-78
2023/04/11 06:02:22;;;;;;;9.32;0.80;;;8.10;99.90;;;;;;5027480;28;20527;-78
2023/04/11 06:04:49;;;;;;;9.75;0.65;;;8.20;99.90;;;;;;5001034;28;20266;-78
2023/04/11 06:07:16;;;;;;;5.05;0.50;;;8.30;99.90;;;;;;5015872;28;20032;-79
2023/04/11 06:09:43;;;;;;;7.63;0.82;;;8.40;99.90;;;;;;5023029;28;20322;-78
2023/04/11 06:12:09;;;;;;;9.52;0.55;;;8.50;99.90;;;;;;5028281;28;20040;-79
2023/04/11 06:14:35;;;;;;;7.95;0.60;;;8.60;99.90;;;;;;5010276;28;20497;-79
2023/04/11 06:17:02;;;;;;;5.75;0.52;;;8.70;99.90;;;;;;5008597;28;20044;-79
2023/04/11 06:19:28;;;;;;;7.57;0.52;;;8.80;99.90;;;;;;5038526;28;20104;-83
2023/04/11 06:21:54;;;;;;;10.93;1.08;;;8.90;99.90;;;;;;5028798;28;20044;-82
2023/04/11 06:24:35;;;;;;;9.93;1.60;;;9.00;99.90;;;;;;5012354;28;20040;-78
2023/04/11 06:27:01;;;;;;;7.28;0.77;;;9.10;99.90;;;;;;5029838;28;20035;-78
2023/04/11 06:29:27;;;;;;;7.63;1.00;;;9.20;99.90;;;;;;5007334;28;20029;-78
2023/04/11 06:31:53;;;;;;;5.38;0.68;;;9.30;99.90;;;;;;5028720;28;20526;-78
2023/04/11 06:34:20;;;;;;;7.18;1.17;;;9.30;99.90;;;;;;5012679;28;20024;-81
2023/04/11 06:36:48;;;;;;;5.93;0.50;;;9.40;99.90;;;;;;5029710;28;20067;-81
2023/04/11 06:39:18;;;;;;;11.50;0.60;;;9.50;99.90;;;;;;5006408;28;20472;-82
2023/04/11 06:41:46;;;;;;;7.75;0.77;;;9.60;99.90;;;;;;4994135;28;20423;-82
2023/04/11 06:44:17;;;;;;;9.07;1.35;;;9.70;99.90;;;;;;5026673;28;20024;-80
2023/04/11 06:46:44;;;;;;;8.32;0.70;;;9.70;99.90;;;;;;4995576;28;20020;-80
2023/04/11 06:49:10;;;;;;;4.47;0.50;;;9.80;99.90;;;;;;5021218;28;20373;-80
2023/04/11 06:51:37;;;;;;;8.40;0.70;;;9.80;99.90;;;;;;5027834;28;20497;-81
2023/04/11 06:54:05;;;;;;;8.52;0.40;;;9.90;99.90;;;;;;5010510;28;20054;-80
2023/04/11 06:56:31;;;;;;;7.68;0.60;;;10.00;99.90;;;;;;5012653;28;20044;-80
2023/04/11 06:58:57;;;;;;;7.93;0.70;;;10.00;99.90;;;;;;5039232;28;20110;-81
2023/04/11 07:01:24;;;;;;;6.18;0.57;;;10.10;99.90;;;;;;5027994;28;20479;-81
2023/04/11 07:03:53;;;;;;;6.57;0.63;;;10.20;99.90;;;;;;5029045;28;20036;-81
2023/04/11 07:06:20;;;;;;;4.75;0.60;;;10.30;99.90;;;;;;5032748;28;20435;-81
2023/04/11 07:08:46;;;;;;;8.18;0.82;;;10.40;99.90;;;;;;5021276;28;20032;-81
2023/04/11 07:11:12;;;;;;;9.88;1.02;;;10.40;99.90;;;;;;5027973;28;20035;-80
2023/04/11 07:13:39;;;;;;;9.70;0.93;;;10.50;99.90;;;;;;5011631;28;20521;-81
2023/04/11 07:16:05;;;;;;;8.32;1.30;;;10.60;99.90;;;;;;5011032;28;20620;-82
2023/04/11 07:18:31;;;;;;;10.02;1.27;;;10.60;99.90;;;;;;5022004;28;20404;-80
2023/04/11 07:20:58;;;;;;;10.60;1.50;;;10.70;99.90;;;;;;5007054;28;20040;-81
2023/04/11 07:23:24;;;;;;;6.05;1.13;;;10.70;99.90;;;;;;5023618;28;20072;-80
2023/04/11 07:25:53;;;;;;;10.35;0.82;;;10.80;99.90;;;;;;5039248;28;20544;-80
2023/04/11 07:28:20;;;;;;;7.55;0.88;;;10.80;99.90;;;;;;5020772;28;20653;-81
2023/04/11 07:30:46;;;;;;;9.38;0.98;;;10.90;99.90;;;;;;5026145;28;20024;-82
2023/04/11 07:33:12;;;;;;;9.02;0.90;;;11.00;99.90;;;;;;5026314;28;20044;-81
2023/04/11 07:35:39;;;;;;;8.88;1.08;;;11.20;99.90;;;;;;5046845;28;20036;-81
2023/04/11 07:38:08;;;;;;;9.05;0.90;;;11.20;99.90;;;;;;5021925;28;20338;-80
2023/04/11 07:40:34;;;;;;;10.55;0.95;;;11.10;99.90;;;;;;5012499;28;20039;-81
2023/04/11 07:43:00;;;;;;;7.68;0.90;;;11.00;99.90;;;;;;5027922;28;20055;-80
2023/04/11 07:45:27;;;;;;;6.57;0.60;;;10.80;99.90;;;;;;5029749;28;20493;-81
2023/04/11 07:47:53;;;;;;;7.50;1.33;;;10.60;99.90;;;;;;5006590;28;20044;-80
2023/04/11 07:50:19;;;;;;;6.93;0.85;;;10.40;99.90;;;;;;5025041;28;20032;-81
2023/04/11 07:52:46;;;;;;;10.90;1.23;;;10.20;99.90;;;;;;5012041;28;20035;-81
2023/04/11 07:55:12;;;;;;;8.18;0.82;;;10.30;99.90;;;;;;5028432;28;20036;-82
2023/04/11 07:57:38;;;;;;;11.68;1.13;;;10.40;99.90;;;;;;5027731;28;20032;-81
2023/04/11 08:00:05;;;;;;;8.48;1.17;;;10.70;99.90;;;;;;5009447;28;20024;-83
2023/04/11 08:02:38;;;;;;;8.95;0.90;;;10.90;99.90;;;;;;5027533;28;20051;-82
2023/04/11 08:05:08;;;;;;;5.35;0.60;;;11.20;99.90;;;;;;5044705;28;20376;-82
2023/04/11 08:07:34;;;;;;;7.35;0.70;;;11.20;99.90;;;;;;5010813;28;20055;-80
2023/04/11 08:10:01;;;;;;;7.50;0.57;;;11.30;99.90;;;;;;5019758;28;20055;-81
2023/04/11 08:12:27;;;;;;;8.98;0.82;;;11.40;99.90;;;;;;5034462;28;20044;-82
2023/04/11 08:14:53;;;;;;;6.68;0.50;;;11.70;99.90;;;;;;5034607;28;20028;-81
2023/04/11 08:17:20;;;;;;;7.30;0.75;;;11.80;99.90;;;;;;5029486;28;20036;-82
2023/04/11 08:19:46;;;;;;;7.95;1.08;;;11.80;99.90;;;;;;5040230;28;20394;-81
2023/04/11 08:22:12;;;;;;;6.13;0.70;;;11.90;99.90;;;;;;5027753;28;20348;-80
2023/04/11 08:24:39;;;;;;;4.43;0.70;;;12.00;99.90;;;;;;5028002;28;20035;-82
2023/04/11 08:27:05;;;;;;;10.75;1.35;;;12.10;99.90;;;;;;4997196;28;20460;-81
2023/04/11 08:29:32;;;;;;;5.70;0.60;;;12.10;99.90;;;;;;5020269;28;20516;-83
2023/04/11 08:31:58;;;;;;;6.90;0.50;;;11.90;99.90;;;;;;5044644;28;20029;-81
2023/04/11 08:34:24;;;;;;;5.63;0.55;;;11.90;99.90;;;;;;5007853;28;20071;-82
2023/04/11 08:36:50;;;;;;;5.53;0.50;;;11.80;99.90;;;;;;5026945;28;20387;-84
2023/04/11 08:39:17;;;;;;;5.22;0.55;;;11.70;99.90;;;;;;5038694;28;20395;-84
2023/04/11 08:41:43;;;;;;;6.50;0.60;;;11.90;99.90;;;;;;5009628;28;20519;-83
2023/04/11 08:44:10;;;;;;;4.82;0.55;;;12.10;99.90;;;;;;5029139;28;20442;-86
2023/04/11 08:46:40;;;;;;;4.07;0.73;;;12.30;99.90;;;;;;5026395;28;20039;-85
2023/04/11 08:49:07;;;;;;;6.15;0.60;;;12.60;99.90;;;;;;4986201;28;20032;-81
2023/04/11 08:51:33;;;;;;;6.03;0.63;;;12.80;99.90;;;;;;5010004;28;20370;-82
2023/04/11 08:54:04;;;;;;;5.80;0.70;;;13.10;99.90;;;;;;5009384;28;20385;-84
2023/04/11 08:56:32;;;;;;;4.85;0.80;;;13.10;99.90;;;;;;5046366;28;20051;-81
2023/04/11 08:58:58;;;;;;;6.63;0.90;;;13.20;99.90;;;;;;5035414;28;20040;-82
2023/04/11 09:01:27;;;;;;;8.63;0.75;;;13.40;99.90;;;;;;5028160;28;20032;-81
2023/04/11 09:03:54;;;;;;;7.15;0.90;;;13.60;99.90;;;;;;5025842;28;20413;-84
2023/04/11 09:06:20;;;;;;;4.63;0.60;;;13.60;99.90;;;;;;5025406;28;20036;-81
2023/04/11 09:08:47;;;;;;;5.97;0.65;;;13.60;99.90;;;;;;5019381;28;20379;-84
2023/04/11 09:11:13;;;;;;;9.40;0.65;;;13.70;99.90;;;;;;5025582;28;20024;-81
2023/04/11 09:13:39;;;;;;;5.82;0.93;;;13.50;99.90;;;;;;5027557;28;20032;-82
2023/04/11 09:16:11;;;;;;;8.77;0.80;;;13.30;99.90;;;;;;5045171;28;20043;-84
2023/04/11 09:18:43;;;;;;;6.40;0.70;;;13.20;99.90;;;;;;5036016;28;23242;-82
2023/04/11 09:21:12;;;;;;;6.80;0.73;;;13.20;99.90;;;;;;5025948;28;20587;-83
2023/04/11 09:23:38;;;;;;;6.53;0.88;;;13.10;99.90;;;;;;5024549;28;20025;-83
2023/04/11 09:26:09;;;;;;;7.32;0.52;;;13.10;99.90;;;;;;5010719;28;20040;-83
2023/04/11 09:28:41;;;;;;;6.18;0.77;;;13.10;99.90;;;;;;5019857;28;20605;-84
2023/04/11 09:31:09;;;;;;;6.30;1.27;;;13.20;99.90;;;;;;5046437;28;20038;-84
2023/04/11 09:33:35;;;;;;;6.43;0.68;;;13.30;99.90;;;;;;4993971;28;20039;-83
2023/04/11 09:36:20;;;;;;;7.63;0.70;;;13.50;99.90;;;;;;5028381;28;20039;-80
2023/04/11 09:38:46;;;;;;;6.07;0.80;;;13.70;99.90;;;;;;5018644;28;20373;-80
2023/04/11 09:41:13;;;;;;;7.85;0.80;;;14.00;99.90;;;;;;5046292;28;20495;-83
2023/04/11 09:43:54;;;;;;;4.60;0.73;;;14.10;99.90;;;;;;5026629;28;20476;-79
2023/04/11 09:46:20;;;;;;;8.00;0.98;;;14.10;99.90;;;;;;5039062;28;20032;-85
2023/04/11 09:48:48;;;;;;;8.00;1.08;;;14.10;99.90;;;;;;5038768;28;20048;-82
2023/04/11 09:51:16;;;;;;;5.68;0.60;;;14.30;99.90;;;;;;5037198;28;20119;-80
2023/04/11 09:53:43;;;;;;;8.02;0.85;;;14.50;99.90;;;;;;5026996;28;20481;-82
2023/04/11 09:56:10;;;;;;;6.50;0.63;;;14.50;99.90;;;;;;5025630;28;20025;-86
2023/04/11 09:58:38;;;;;;;5.28;0.50;;;14.40;99.90;;;;;;5003869;28;20566;-82
2023/04/11 10:01:07;;;;;;;9.73;0.60;;;14.30;99.90;;;;;;5015798;28;20028;-83
2023/04/11 10:03:35;;;;;;;8.27;0.80;;;14.40;99.90;;;;;;5029883;28;20040;-81
2023/04/11 10:06:08;;;;;;;7.30;0.60;;;14.40;99.90;;;;;;5031384;28;20031;-82
2023/04/11 10:08:35;;;;;;;;;;;14.50;99.90;;;;;;5042085;28;20040;-82
2023/04/11 10:11:03;;;;;;;8.48;0.52;;;14.50;99.90;;;;;;5014064;28;19916;-80
2023/04/11 10:13:38;;;;;;;5.07;0.40;;;14.50;99.60;;;;;;5031601;28;20036;-85
2023/04/11 10:16:08;;;;;;;5.95;0.65;;;14.40;99.90;;;;;;5052768;28;20180;-79
2023/04/11 10:18:55;;;;;;;7.75;0.50;;;14.50;99.80;;;;;;5048840;28;20032;-83
2023/04/11 10:21:34;;;;;;;7.82;0.60;;;14.70;98.80;;;;;;4993389;28;20047;-84
2023/04/11 10:24:22;;;;;;;4.60;0.65;;;14.80;99.00;;;;;;5014532;28;20547;-83
2023/04/11 10:27:02;;;;;;;5.70;0.70;;;14.90;97.70;;;;;;5016000;28;20036;-79
2023/04/11 10:29:39;;;;;;;3.40;0.55;;;14.40;96.20;;;;;;5007506;28;20371;-81
2023/04/11 10:32:14;;;;;;;4.80;0.68;;;14.00;96.60;;;;;;5009698;28;20033;-82
2023/04/11 10:34:52;;;;;;;7.45;0.70;;;14.00;97.50;;;;;;5049763;28;20689;-78
2023/04/11 10:37:35;;;;;;;3.45;0.40;;;14.10;97.10;;;;;;5046826;28;20036;-79
2023/04/11 10:40:11;;;;;;;5.00;0.70;;;13.70;95.90;;;;;;4990382;28;20483;-78
2023/04/11 10:42:42;;;;;;;3.28;0.40;;;13.50;96.10;;;;;;5028180;28;20032;-79
2023/04/11 10:45:23;;;;;;;4.07;0.40;;;13.70;96.40;;;;;;5028928;28;20040;-80
2023/04/11 10:47:56;;;;;;;2.90;0.30;;;13.80;95.90;;;;;;5008392;28;20040;-80
2023/04/11 10:50:25;;;;;;;3.22;0.43;;;14.20;96.50;;;;;;5043905;28;20490;-77
2023/04/11 10:52:55;;;;;;;5.03;0.45;;;14.90;96.30;;;;;;4997585;28;21121;-81
2023/04/11 10:55:25;;;;;;;1.90;0.30;;;15.40;93.90;;;;;;5047577;28;20442;-79
2023/04/11 10:58:15;;;;;;;4.07;0.40;;;15.80;93.10;;;;;;5027605;28;20534;-77
2023/04/11 11:00:54;;;;;;;2.85;0.40;;;16.30;92.40;;;;;;5048342;28;21318;-78
2023/04/11 11:03:29;;;;;;;3.88;0.60;;;16.70;91.70;;;;;;4996684;28;20052;-78
2023/04/11 11:05:57;;;;;;;3.47;0.60;;;17.00;90.80;;;;;;5029507;28;20468;-79
2023/04/11 11:08:29;;;;;;;3.25;0.50;;;17.50;88.70;;;;;;5004341;28;20033;-79
2023/04/11 11:11:05;;;;;;;4.03;0.50;;;17.70;86.00;;;;;;5028785;28;20032;-80
2023/04/11 11:13:44;;;;;;;3.00;0.60;;;18.10;84.70;;;;;;5033143;28;20047;-79
2023/04/11 11:16:21;;;;;;;4.43;0.43;;;18.30;82.50;;;;;;5031018;28;20396;-80
2023/04/11 11:18:53;;;;;;;3.15;0.50;;;18.30;77.80;;;;;;5020967;28;20479;-79
2023/04/11 11:21:26;;;;;;;3.28;0.43;;;18.10;77.70;;;;;;5030487;28;20048;-79
2023/04/11 11:24:01;;;;;;;3.92;0.50;;;18.00;77.80;;;;;;5043977;28;20032;-76
2023/04/11 11:26:40;;;;;;;3.50;0.50;;;18.00;78.30;;;;;;5049026;28;20020;-75
2023/04/11 11:29:07;;;;;;;5.13;0.75;;;18.30;77.60;;;;;;5021470;28;20040;-77
2023/04/11 11:31:40;;;;;;;3.90;0.50;;;18.30;77.30;;;;;;5047783;28;20439;-75
2023/04/11 11:34:08;;;;;;;4.10;0.60;;;18.40;77.10;;;;;;5012322;28;20048;-78
2023/04/11 11:36:45;;;;;;;3.33;0.40;;;18.70;76.20;;;;;;5027283;28;20029;-75
2023/04/11 11:39:12;;;;;;;2.30;0.50;;;19.20;76.40;;;;;;5022849;28;20028;-74
2023/04/11 11:41:40;;;;;;;4.50;0.57;;;19.60;76.30;;;;;;5010681;28;20607;-77
2023/04/11 11:44:06;;;;;;;6.10;0.80;;;19.30;73.30;;;;;;5028059;28;20419;-75
2023/04/11 11:46:34;;;;;;;4.78;0.60;;;18.50;73.00;;;;;;5025656;28;20032;-78
2023/04/11 11:49:02;;;;;;;2.65;0.52;;;17.70;73.70;;;;;;4987570;28;20392;-78
2023/04/11 11:51:40;;;;;;;3.47;0.52;;;18.00;75.20;;;;;;5031179;28;20032;-77
2023/04/11 11:54:07;;;;;;;4.28;0.90;;;18.60;75.00;;;;;;4997036;28;20043;-75
2023/04/11 11:56:35;;;;;;;3.80;0.60;;;19.00;74.20;;;;;;5031344;28;20033;-79
2023/04/11 11:59:05;;;;;;;6.25;1.10;;;18.60;72.80;;;;;;5006949;28;20032;-78
2023/04/11 12:01:35;;;;;;;5.15;1.05;;;17.80;72.40;;;;;;5027302;28;20025;-77
2023/04/11 12:04:05;;;;;;;5.18;0.80;;;17.50;73.30;;;;;;5027074;28;20051;-75
2023/04/11 12:06:32;;;;;;;5.95;1.48;;;17.30;74.10;;;;;;5029137;28;20020;-78
2023/04/11 12:09:09;;;;;;;3.78;0.50;;;17.80;75.10;;;;;;5039669;28;20055;-75
2023/04/11 12:11:37;;;;;;;3.60;0.80;;;18.80;73.60;;;;;;5028261;28;20043;-78
2023/04/11 12:14:03;;;;;;;4.90;1.00;;;19.90;73.00;;;;;;5027421;28;20546;-76
2023/04/11 12:16:30;;;;;;;5.68;0.70;;;20.80;72.10;;;;;;5010611;28;20036;-74
2023/04/11 12:19:01;;;;;;;3.83;0.60;;;21.70;69.40;;;;;;5039786;28;20055;-77
2023/04/11 12:21:28;;;;;;;4.30;0.60;;;22.30;69.10;;;;;;5047304;28;20048;-76
2023/04/11 12:23:54;;;;;;;4.88;1.00;;;22.80;65.40;;;;;;5026153;28;20036;-76
2023/04/11 12:26:21;;;;;;;4.65;0.65;;;23.10;62.60;;;;;;5028416;28;20032;-79
2023/04/11 12:28:48;;;;;;;7.05;0.80;;;23.40;62.70;;;;;;5035720;28;20020;-79
2023/04/11 12:31:16;;;;;;;5.57;0.82;;;23.90;62.20;;;;;;5023734;28;20035;-78
2023/04/11 12:33:42;;;;;;;4.75;0.70;;;24.40;61.80;;;;;;5026486;28;20477;-76
2023/04/11 12:36:09;;;;;;;6.75;0.80;;;25.00;60.30;;;;;;5023974;28;20032;-76
2023/04/11 12:38:36;;;;;;;3.20;0.65;;;25.30;56.40;;;;;;5036504;28;20028;-77
2023/04/11 12:41:03;;;;;;;3.35;0.60;;;25.50;56.60;;;;;;5011312;28;20360;-77
2023/04/11 12:43:29;;;;;;;4.93;0.80;;;25.60;54.80;;;;;;5009909;28;20603;-76
2023/04/11 12:45:55;;;;;;;4.00;0.70;;;25.80;53.30;;;;;;5010547;28;20033;-76
2023/04/11 12:48:21;;;;;;;5.97;0.88;;;26.00;52.90;;;;;;5017124;28;20033;-77
2023/04/11 12:50:48;;;;;;;5.63;1.00;;;26.20;51.90;;;;;;5025153;28;20040;-76
2023/04/11 12:53:14;;;;;;;4.32;0.60;;;26.30;51.90;;;;;;5035401;28;20039;-77
2023/04/11 12:55:40;;;;;;;6.35;1.20;;;26.50;51.60;;;;;;5009706;28;20024;-78